createdAt,value
2019-04-03T00:00:41.073Z,2.10
2019-04-03T00:03:09.185Z,2.50
2019-04-03T00:05:37.482Z,2.60
2019-04-03T00:08:06.596Z,1.80
2019-04-03T00:10:37.631Z,1.97
2019-04-03T00:13:05.711Z,1.73
2019-04-03T00:15:33.909Z,2.10
2019-04-03T00:18:01.996Z,2.10
2019-04-03T00:20:30.175Z,2.27
2019-04-03T00:22:58.210Z,2.10
2019-04-03T00:25:26.341Z,2.53
2019-04-03T00:27:54.452Z,2.37
2019-04-03T00:30:22.914Z,2.63
2019-04-03T00:32:53.157Z,1.90
2019-04-03T00:35:23.147Z,1.87
2019-04-03T00:37:56.916Z,2.30
2019-04-03T00:40:25.002Z,2.57
2019-04-03T00:42:54.561Z,2.67
2019-04-03T00:45:24.493Z,2.27
2019-04-03T00:47:55.291Z,2.37
2019-04-03T00:50:22.753Z,2.33
2019-04-03T00:52:51.438Z,2.27
2019-04-03T00:55:19.874Z,2.73
2019-04-03T00:57:48.139Z,2.20
2019-04-03T01:00:16.285Z,2.10
2019-04-03T01:02:44.602Z,3.30
2019-04-03T01:05:12.981Z,3.30
2019-04-03T01:07:41.150Z,2.77
2019-04-03T01:10:09.398Z,2.93
2019-04-03T01:12:37.509Z,3.20
2019-04-03T01:15:05.950Z,3.67
2019-04-03T01:17:34.907Z,3.07
2019-04-03T01:20:04.534Z,3.30
2019-04-03T01:22:33.280Z,3.20
2019-04-03T01:25:01.415Z,3.40
2019-04-03T01:27:29.493Z,3.13
2019-04-03T01:29:57.612Z,4.20
2019-04-03T01:32:25.752Z,4.13
2019-04-03T01:34:53.898Z,3.80
2019-04-03T01:37:22.148Z,4.47
2019-04-03T01:39:50.862Z,5.10
2019-04-03T01:42:21.503Z,4.30
2019-04-03T01:44:49.284Z,4.70
2019-04-03T01:47:17.411Z,4.97
2019-04-03T01:49:45.585Z,4.53
2019-04-03T01:52:13.752Z,4.80
2019-04-03T01:54:41.898Z,5.60
2019-04-03T01:57:10.051Z,4.87
2019-04-03T01:59:38.194Z,5.23
2019-04-03T02:02:06.702Z,5.10
2019-04-03T02:04:36.123Z,4.57
2019-04-03T02:07:04.232Z,5.00
2019-04-03T02:09:32.356Z,4.70
2019-04-03T02:12:00.514Z,4.90
2019-04-03T02:14:28.759Z,5.03
2019-04-03T02:16:56.919Z,4.93
2019-04-03T02:19:26.284Z,4.40
2019-04-03T02:21:54.902Z,5.00
2019-04-03T02:24:23.022Z,4.07
2019-04-03T02:26:51.506Z,4.17
2019-04-03T02:29:19.588Z,5.30
2019-04-03T02:31:51.731Z,4.00
2019-04-03T02:34:17.811Z,3.80
2019-04-03T02:36:46.741Z,3.90
2019-04-03T02:39:14.911Z,4.10
2019-04-03T02:41:43.078Z,4.30
2019-04-03T02:44:11.287Z,4.27
2019-04-03T02:46:39.377Z,4.17
2019-04-03T02:49:10.235Z,4.80
2019-04-03T02:51:57.817Z,4.07
2019-04-03T02:54:27.781Z,4.80
2019-04-03T02:56:56.235Z,3.90
2019-04-03T02:59:25.968Z,4.00
2019-04-03T03:01:54.247Z,4.20
2019-04-03T03:04:23.012Z,4.27
2019-04-03T03:06:51.332Z,3.57
2019-04-03T03:09:19.554Z,4.33
2019-04-03T03:11:47.717Z,4.37
2019-04-03T03:14:15.945Z,4.63
2019-04-03T03:16:44.867Z,4.60
2019-04-03T03:19:13.102Z,3.53
2019-04-03T03:21:43.888Z,3.60
2019-04-03T03:24:11.127Z,3.80
2019-04-03T03:26:39.389Z,3.80
2019-04-03T03:29:16.132Z,3.83
2019-04-03T03:32:01.494Z,3.80
2019-04-03T03:34:07.910Z,4.10
2019-04-03T03:36:36.805Z,3.70
2019-04-03T03:39:06.428Z,3.33
2019-04-03T03:41:36.104Z,3.33
2019-04-03T03:44:04.747Z,3.30
2019-04-03T03:46:32.917Z,3.40
2019-04-03T03:49:01.327Z,3.50
2019-04-03T03:51:31.964Z,3.17
2019-04-03T03:54:00.266Z,3.47
2019-04-03T03:56:31.596Z,2.97
2019-04-03T03:58:58.922Z,3.47
2019-04-03T04:01:28.492Z,3.60
2019-04-03T04:03:57.910Z,2.80
2019-04-03T04:06:29.091Z,3.20
2019-04-03T04:08:55.947Z,3.30
2019-04-03T04:11:24.440Z,3.20
2019-04-03T04:13:52.768Z,3.10
2019-04-03T04:16:21.182Z,2.60
2019-04-03T04:18:49.458Z,3.00
2019-04-03T04:21:17.900Z,3.00
2019-04-03T04:23:46.584Z,2.97
2019-04-03T04:26:14.826Z,3.30
2019-04-03T04:28:43.014Z,3.57
2019-04-03T04:31:12.793Z,3.50
2019-04-03T04:33:40.932Z,3.60
2019-04-03T04:36:09.264Z,4.40
2019-04-03T04:38:37.492Z,4.20
2019-04-03T04:41:05.620Z,3.87
2019-04-03T04:43:33.840Z,4.00
2019-04-03T04:46:02.024Z,3.87
2019-04-03T04:48:30.176Z,4.20
2019-04-03T04:50:58.318Z,3.00
2019-04-03T04:53:29.390Z,3.57
2019-04-03T04:55:56.468Z,2.90
2019-04-03T04:58:24.543Z,3.20
2019-04-03T05:00:53.689Z,2.80
2019-04-03T05:03:22.441Z,3.27
2019-04-03T05:05:51.934Z,3.90
2019-04-03T05:08:20.119Z,3.23
2019-04-03T05:10:49.315Z,3.17
2019-04-03T05:13:17.553Z,3.23
2019-04-03T05:15:45.837Z,3.47
2019-04-03T05:18:13.906Z,2.97
2019-04-03T05:20:42.308Z,2.70
2019-04-03T05:23:10.457Z,2.67
2019-04-03T05:25:38.821Z,3.10
2019-04-03T05:28:07.090Z,3.00
2019-04-03T05:30:37.767Z,2.90
2019-04-03T05:33:05.243Z,2.63
2019-04-03T05:35:33.385Z,3.30
2019-04-03T05:38:01.860Z,3.20
2019-04-03T05:40:30.010Z,3.23
2019-04-03T05:42:59.813Z,3.10
2019-04-03T05:45:28.028Z,3.53
2019-04-03T05:47:56.139Z,3.33
2019-04-03T05:50:26.106Z,3.77
2019-04-03T05:52:54.130Z,3.57
2019-04-03T05:55:22.176Z,3.60
2019-04-03T05:57:50.379Z,4.13
2019-04-03T06:00:18.420Z,3.53
2019-04-03T06:02:46.674Z,3.20
2019-04-03T06:05:14.810Z,3.43
2019-04-03T06:07:43.126Z,3.50
2019-04-03T06:10:11.559Z,3.50
2019-04-03T06:12:39.690Z,3.27
2019-04-03T06:15:10.076Z,3.30
2019-04-03T06:17:40.747Z,3.40
2019-04-03T06:20:11.244Z,3.80
2019-04-03T06:22:38.901Z,3.63
2019-04-03T06:25:07.125Z,3.87
2019-04-03T06:27:35.325Z,3.80
2019-04-03T06:30:03.345Z,4.20
2019-04-03T06:32:34.382Z,4.03
2019-04-03T06:35:02.539Z,3.80
2019-04-03T06:37:30.617Z,4.53
2019-04-03T06:39:58.937Z,4.40
2019-04-03T06:42:28.607Z,4.93
2019-04-03T06:44:59.419Z,4.77
2019-04-03T06:47:27.569Z,4.90
2019-04-03T06:49:55.747Z,4.63
2019-04-03T06:52:24.047Z,5.50
2019-04-03T06:54:52.237Z,5.70
2019-04-03T06:57:20.438Z,7.80
2019-04-03T06:59:48.921Z,5.50
2019-04-03T07:02:17.385Z,5.30
2019-04-03T07:04:45.563Z,5.20
2019-04-03T07:07:13.589Z,5.60
2019-04-03T07:09:41.710Z,4.90
2019-04-03T07:12:10.003Z,5.00
2019-04-03T07:14:38.310Z,4.73
2019-04-03T07:17:06.465Z,4.97
2019-04-03T07:19:34.587Z,5.87
2019-04-03T07:22:02.803Z,4.60
2019-04-03T07:24:31.842Z,4.97
2019-04-03T07:27:00.511Z,4.23
2019-04-03T07:29:28.699Z,5.40
2019-04-03T07:31:56.963Z,5.20
2019-04-03T07:34:25.350Z,5.27
2019-04-03T07:36:53.523Z,5.77
2019-04-03T07:39:21.716Z,6.20
2019-04-03T07:41:49.954Z,5.47
2019-04-03T07:44:18.097Z,5.13
2019-04-03T07:46:46.257Z,5.53
2019-04-03T07:49:14.722Z,4.97
2019-04-03T07:51:43.701Z,5.50
2019-04-03T07:54:12.700Z,5.57
2019-04-03T07:56:40.813Z,5.80
2019-04-03T07:59:09.029Z,5.87
2019-04-03T08:01:37.157Z,5.03
2019-04-03T08:04:05.386Z,5.27
2019-04-03T08:06:35.828Z,4.87
2019-04-03T08:09:08.268Z,4.97
2019-04-03T08:11:37.142Z,5.77
2019-04-03T08:14:04.520Z,5.33
2019-04-03T08:16:32.615Z,5.20
2019-04-03T08:19:00.752Z,5.37
2019-04-03T08:21:30.517Z,5.63
2019-04-03T08:23:58.975Z,5.93
2019-04-03T08:26:27.488Z,5.43
2019-04-03T08:28:56.085Z,5.70
2019-04-03T08:31:24.446Z,6.43
2019-04-03T08:33:52.659Z,6.37
2019-04-03T08:36:25.050Z,6.23
2019-04-03T08:38:50.841Z,6.10
2019-04-03T08:41:19.016Z,7.03
2019-04-03T08:43:47.213Z,6.27
2019-04-03T08:46:15.330Z,5.63
2019-04-03T08:48:44.814Z,5.63
2019-04-03T08:51:13.318Z,4.40
2019-04-03T08:53:41.553Z,4.47
2019-04-03T08:56:09.714Z,2.97
2019-04-03T08:58:38.064Z,4.20
2019-04-03T09:01:06.457Z,2.87
2019-04-03T09:03:34.548Z,2.80
2019-04-03T09:06:02.668Z,3.00
2019-04-03T09:08:30.882Z,3.40
2019-04-03T09:10:58.981Z,3.03
2019-04-03T09:13:27.150Z,3.03
2019-04-03T09:15:55.499Z,3.60
2019-04-03T09:18:25.511Z,1.90
2019-04-03T09:20:53.652Z,1.47
2019-04-03T09:23:24.618Z,1.10
2019-04-03T09:25:51.811Z,0.90
2019-04-03T09:28:19.825Z,1.07
2019-04-03T09:30:48.645Z,1.47
2019-04-03T09:33:17.141Z,1.40
2019-04-03T09:35:45.249Z,1.20
2019-04-03T09:38:13.361Z,1.20
2019-04-03T09:40:41.464Z,1.13
2019-04-03T09:43:09.621Z,0.83
2019-04-03T09:45:37.841Z,1.13
2019-04-03T09:48:06.245Z,1.00
2019-04-03T09:50:35.023Z,1.30
2019-04-03T09:53:03.492Z,0.90
2019-04-03T09:55:36.006Z,1.07
2019-04-03T09:58:03.293Z,1.27
2019-04-03T10:00:31.417Z,0.90
2019-04-03T10:02:59.602Z,1.13
2019-04-03T10:05:28.927Z,1.60
2019-04-03T10:07:57.579Z,1.00
2019-04-03T10:10:26.352Z,1.27
2019-04-03T10:12:54.717Z,1.20
2019-04-03T10:15:22.898Z,1.30
2019-04-03T10:17:50.987Z,1.00
2019-04-03T10:20:19.211Z,0.90
2019-04-03T10:22:47.398Z,0.90
2019-04-03T10:25:16.176Z,1.10
2019-04-03T10:27:44.643Z,0.90
2019-04-03T10:30:13.539Z,0.90
2019-04-03T10:32:41.787Z,0.83
2019-04-03T10:35:10.070Z,0.90
2019-04-03T10:37:38.327Z,0.80
2019-04-03T10:40:07.988Z,0.63
2019-04-03T10:42:36.387Z,0.77
2019-04-03T10:45:05.350Z,0.60
2019-04-03T10:47:41.334Z,0.60
2019-04-03T10:50:04.873Z,0.83
2019-04-03T10:52:33.296Z,0.90
2019-04-03T10:55:01.496Z,1.07
2019-04-03T10:57:29.726Z,0.80
2019-04-03T10:59:57.861Z,0.90
2019-04-03T11:02:26.070Z,0.80
2019-04-03T11:04:54.184Z,0.73
2019-04-03T11:07:22.632Z,0.73
2019-04-03T11:09:50.742Z,0.87
2019-04-03T11:12:19.058Z,0.70
2019-04-03T11:14:47.206Z,0.80
2019-04-03T11:17:15.980Z,0.90
2019-04-03T11:19:45.101Z,0.87
2019-04-03T11:22:14.171Z,0.93
2019-04-03T11:24:43.334Z,0.70
2019-04-03T11:27:11.583Z,0.80
2019-04-03T11:29:41.971Z,0.70
2019-04-03T11:32:10.003Z,0.80
2019-04-03T11:34:38.303Z,0.83
2019-04-03T11:37:06.507Z,0.80
2019-04-03T11:39:37.158Z,0.90
2019-04-03T11:42:04.467Z,0.50
2019-04-03T11:44:32.827Z,0.80
2019-04-03T11:47:01.819Z,0.60
2019-04-03T11:49:30.150Z,0.80
2019-04-03T11:51:58.973Z,0.80
2019-04-03T11:54:28.506Z,0.70
2019-04-03T11:56:57.221Z,0.53
2019-04-03T11:59:26.052Z,0.50
2019-04-03T12:01:54.306Z,1.70
2019-04-03T12:04:22.422Z,0.70
2019-04-03T12:06:51.993Z,0.70
2019-04-03T12:09:20.540Z,0.60
2019-04-03T12:11:48.641Z,0.70
2019-04-03T12:14:17.103Z,0.60
2019-04-03T12:16:46.122Z,0.80
2019-04-03T12:19:14.411Z,0.80
2019-04-03T12:21:42.466Z,0.60
2019-04-03T12:24:10.670Z,0.60
2019-04-03T12:26:38.836Z,0.97
2019-04-03T12:29:08.261Z,0.80
2019-04-03T12:31:36.801Z,0.83
2019-04-03T12:34:06.728Z,0.73
2019-04-03T12:36:34.807Z,0.83
2019-04-03T12:39:03.086Z,0.80
2019-04-03T12:41:31.197Z,0.90
2019-04-03T12:43:59.427Z,1.00
2019-04-03T12:46:37.341Z,1.00
2019-04-03T12:49:07.341Z,0.80
2019-04-03T12:51:36.026Z,0.90
2019-04-03T12:54:04.590Z,0.80
2019-04-03T12:56:33.411Z,1.13
2019-04-03T12:59:02.902Z,1.13
2019-04-03T13:01:31.451Z,0.70
2019-04-03T13:03:59.670Z,0.97
2019-04-03T13:06:27.821Z,0.87
2019-04-03T13:08:56.019Z,1.10
2019-04-03T13:11:24.477Z,0.97
2019-04-03T13:13:52.695Z,1.40
2019-04-03T13:16:22.355Z,1.10
2019-04-03T13:18:50.965Z,0.67
2019-04-03T13:21:19.638Z,0.80
2019-04-03T13:23:47.938Z,0.70
2019-04-03T13:26:16.443Z,0.70
2019-04-03T13:28:44.594Z,1.30
2019-04-03T13:31:12.891Z,1.03
2019-04-03T13:33:42.444Z,0.80
2019-04-03T13:36:10.658Z,0.90
2019-04-03T13:38:39.096Z,0.90
2019-04-03T13:41:09.303Z,0.87
2019-04-03T13:43:37.321Z,1.40
2019-04-03T13:46:05.832Z,0.90
2019-04-03T13:48:34.082Z,0.80
2019-04-03T13:51:02.258Z,0.50
2019-04-03T13:53:30.374Z,0.60
2019-04-03T13:55:58.876Z,0.60
2019-04-03T13:58:28.459Z,0.70
2019-04-03T14:01:00.804Z,0.90
2019-04-03T14:03:27.903Z,1.00
2019-04-03T14:05:56.696Z,1.00
2019-04-03T14:08:24.935Z,0.67
2019-04-03T14:10:53.112Z,0.63
2019-04-03T14:13:21.681Z,1.03
2019-04-03T14:15:49.812Z,1.17
2019-04-03T14:18:18.264Z,0.77
2019-04-03T14:20:46.410Z,0.73
2019-04-03T14:23:14.497Z,1.00
2019-04-03T14:25:42.624Z,0.90
2019-04-03T14:28:10.731Z,0.97
2019-04-03T14:30:38.924Z,1.03
2019-04-03T14:33:07.010Z,0.70
2019-04-03T14:35:51.198Z,1.33
2019-04-03T14:38:05.353Z,1.27
2019-04-03T14:40:33.898Z,1.07
2019-04-03T14:43:02.118Z,1.03
2019-04-03T14:45:30.263Z,1.07
2019-04-03T14:47:58.452Z,1.33
2019-04-03T14:50:26.592Z,1.60
2019-04-03T14:52:55.025Z,1.53
2019-04-03T14:55:23.548Z,1.20
2019-04-03T14:57:53.759Z,1.50
2019-04-03T15:00:27.317Z,1.53
2019-04-03T15:02:53.120Z,2.00
2019-04-03T15:05:21.337Z,1.23
2019-04-03T15:07:50.716Z,2.00
2019-04-03T15:10:19.785Z,1.23
2019-04-03T15:12:48.017Z,2.00
2019-04-03T15:15:16.271Z,1.40
2019-04-03T15:17:44.473Z,1.50
2019-04-03T15:20:12.769Z,1.20
2019-04-03T15:22:40.880Z,1.20
2019-04-03T15:25:09.572Z,1.07
2019-04-03T15:27:38.240Z,1.60
2019-04-03T15:30:10.476Z,1.10
2019-04-03T15:32:37.616Z,1.10
2019-04-03T15:35:05.968Z,0.80
2019-04-03T15:37:34.070Z,1.20
2019-04-03T15:40:02.226Z,0.87
2019-04-03T15:42:30.430Z,1.40
2019-04-03T15:44:58.744Z,1.40
2019-04-03T15:47:35.889Z,1.43
2019-04-03T15:49:58.816Z,1.13
2019-04-03T15:52:26.547Z,1.37
2019-04-03T15:54:54.681Z,1.37
2019-04-03T15:57:23.211Z,0.90
2019-04-03T15:59:52.745Z,1.23
2019-04-03T16:02:21.494Z,1.30
2019-04-03T16:04:49.583Z,1.77
2019-04-03T16:07:17.709Z,1.30
2019-04-03T16:09:45.895Z,1.30
2019-04-03T16:12:14.000Z,1.23
2019-04-03T16:14:43.106Z,2.27
2019-04-03T16:17:11.198Z,1.33
2019-04-03T16:19:40.859Z,1.70
2019-04-03T16:22:09.315Z,1.67
2019-04-03T16:24:37.598Z,1.80
2019-04-03T16:27:07.335Z,1.23
2019-04-03T16:29:36.174Z,1.70
2019-04-03T16:32:04.544Z,1.87
2019-04-03T16:34:32.731Z,1.83
2019-04-03T16:37:01.183Z,1.70
2019-04-03T16:39:31.724Z,1.50
2019-04-03T16:41:59.228Z,1.60
2019-04-03T16:44:27.534Z,1.80
2019-04-03T16:46:55.760Z,2.03
2019-04-03T16:49:23.917Z,1.70
2019-04-03T16:51:51.972Z,1.90
2019-04-03T16:54:20.220Z,1.23
2019-04-03T16:56:48.925Z,1.23
2019-04-03T16:59:18.016Z,1.37
2019-04-03T17:01:46.978Z,1.30
2019-04-03T17:04:24.983Z,1.17
2019-04-03T17:06:47.389Z,1.37
2019-04-03T17:09:14.994Z,1.20
2019-04-03T17:11:44.916Z,1.53
2019-04-03T17:14:12.948Z,1.40
2019-04-03T17:16:41.383Z,1.00
2019-04-03T17:19:09.630Z,1.70
2019-04-03T17:21:39.407Z,1.73
2019-04-03T17:24:08.454Z,1.33
2019-04-03T17:26:48.334Z,1.77
2019-04-03T17:29:06.879Z,1.40
2019-04-03T17:31:35.244Z,1.30
2019-04-03T17:34:06.017Z,1.20
2019-04-03T17:36:33.248Z,0.93
2019-04-03T17:39:03.701Z,1.03
2019-04-03T17:41:31.158Z,1.03
2019-04-03T17:43:59.362Z,1.47
2019-04-03T17:46:27.501Z,0.80
2019-04-03T17:48:56.012Z,1.40
2019-04-03T17:51:24.295Z,1.07
2019-04-03T17:53:52.612Z,0.90
2019-04-03T17:56:20.863Z,1.40
2019-04-03T17:58:49.052Z,1.40
2019-04-03T18:01:17.201Z,1.17
2019-04-03T18:03:45.399Z,2.00
2019-04-03T18:06:13.583Z,1.57
2019-04-03T18:08:41.725Z,1.53
2019-04-03T18:11:09.808Z,2.20
2019-04-03T18:13:38.020Z,1.40
2019-04-03T18:16:06.125Z,1.33
2019-04-03T18:18:37.316Z,1.23
2019-04-03T18:21:05.658Z,1.10
2019-04-03T18:23:33.776Z,1.27
2019-04-03T18:26:01.862Z,1.20
2019-04-03T18:28:30.062Z,1.40
2019-04-03T18:30:58.189Z,1.00
2019-04-03T18:33:26.536Z,0.90
2019-04-03T18:35:56.528Z,1.00
2019-04-03T18:38:24.517Z,0.93
2019-04-03T18:40:52.756Z,0.80
2019-04-03T18:43:21.841Z,1.03
2019-04-03T18:45:50.833Z,1.00
2019-04-03T18:48:19.058Z,0.80
2019-04-03T18:50:47.183Z,1.33
2019-04-03T18:53:15.395Z,1.03
2019-04-03T18:55:45.356Z,1.00
2019-04-03T18:58:13.391Z,0.80
2019-04-03T19:00:41.459Z,0.67
2019-04-03T19:03:09.605Z,0.90
2019-04-03T19:05:40.956Z,1.10
2019-04-03T19:08:13.335Z,1.00
2019-04-03T19:10:40.214Z,0.77
2019-04-03T19:13:08.402Z,0.83
2019-04-03T19:15:36.551Z,0.80
2019-04-03T19:18:18.176Z,1.50
2019-04-03T19:20:34.385Z,1.50
2019-04-03T19:23:04.977Z,1.50
2019-04-03T19:25:32.599Z,1.47
2019-04-03T19:28:02.179Z,1.27
2019-04-03T19:30:30.516Z,1.30
2019-04-03T19:32:58.651Z,1.37
2019-04-03T19:35:28.502Z,1.30
2019-04-03T19:37:56.698Z,1.53
2019-04-03T19:40:24.813Z,1.10
2019-04-03T19:42:52.976Z,1.00
2019-04-03T19:45:21.558Z,1.80
2019-04-03T19:47:49.799Z,1.90
2019-04-03T19:50:17.932Z,1.70
2019-04-03T19:52:46.021Z,1.50
2019-04-03T19:55:14.143Z,1.37
2019-04-03T19:57:42.261Z,1.10
2019-04-03T20:00:10.897Z,1.50
2019-04-03T20:02:42.653Z,1.27
2019-04-03T20:05:08.835Z,1.40
2019-04-03T20:07:36.896Z,1.00
2019-04-03T20:10:05.414Z,1.10
2019-04-03T20:12:33.613Z,0.90
2019-04-03T20:15:02.443Z,1.10
2019-04-03T20:17:30.793Z,1.10
2019-04-03T20:19:58.922Z,1.00
2019-04-03T20:22:27.051Z,1.40
2019-04-03T20:25:00.215Z,1.23
2019-04-03T20:27:24.935Z,1.00
2019-04-03T20:29:53.137Z,1.40
2019-04-03T20:32:21.257Z,1.33
2019-04-03T20:34:49.370Z,1.23
2019-04-03T20:37:17.517Z,1.50
2019-04-03T20:39:45.699Z,1.77
2019-04-03T20:42:13.790Z,1.77
2019-04-03T20:44:41.961Z,1.77
2019-04-03T20:47:10.102Z,2.70
2019-04-03T20:49:38.228Z,2.33
2019-04-03T20:52:06.445Z,3.40
2019-04-03T20:54:34.597Z,1.77
2019-04-03T20:57:03.096Z,2.10
2019-04-03T20:59:31.308Z,1.90
2019-04-03T21:01:59.441Z,2.10
2019-04-03T21:04:27.483Z,2.10
2019-04-03T21:06:55.606Z,2.13
2019-04-03T21:09:23.786Z,2.40
2019-04-03T21:11:51.938Z,2.10
2019-04-03T21:14:20.079Z,2.17
2019-04-03T21:16:48.473Z,2.47
2019-04-03T21:19:16.687Z,2.30
2019-04-03T21:21:44.800Z,2.63
2019-04-03T21:24:12.947Z,2.83
2019-04-03T21:26:41.039Z,2.67
2019-04-03T21:29:09.164Z,2.87
2019-04-03T21:31:37.313Z,3.77
2019-04-03T21:34:05.561Z,2.87
2019-04-03T21:36:33.667Z,3.20
2019-04-03T21:39:01.894Z,2.87
2019-04-03T21:41:30.026Z,3.53
2019-04-03T21:43:59.966Z,2.83
2019-04-03T21:46:28.030Z,3.57
2019-04-03T21:48:56.183Z,3.50
2019-04-03T21:51:24.474Z,3.80
2019-04-03T21:53:55.830Z,2.87
2019-04-03T21:56:22.346Z,3.30
2019-04-03T21:58:50.478Z,3.43
2019-04-03T22:01:25.918Z,3.13
2019-04-03T22:03:54.023Z,3.00
2019-04-03T22:06:22.182Z,3.33
2019-04-03T22:08:51.678Z,3.07
2019-04-03T22:11:19.838Z,3.30
2019-04-03T22:13:48.013Z,3.17
2019-04-03T22:16:19.433Z,3.43
2019-04-03T22:18:46.231Z,2.70
2019-04-03T22:21:14.339Z,3.00
2019-04-03T22:23:42.395Z,2.80
2019-04-03T22:26:10.502Z,3.33
2019-04-03T22:28:38.580Z,2.67
2019-04-03T22:31:06.900Z,2.47
2019-04-03T22:33:35.093Z,3.00
2019-04-03T22:36:03.886Z,2.50
2019-04-03T22:38:32.167Z,2.60
2019-04-03T22:41:00.266Z,2.67
2019-04-03T22:43:28.390Z,2.40
2019-04-03T22:45:56.505Z,2.80
2019-04-03T22:48:26.751Z,3.17
2019-04-03T22:50:54.364Z,3.30
2019-04-03T22:53:22.448Z,3.43
2019-04-03T22:55:50.607Z,3.20
2019-04-03T22:58:19.009Z,3.80
2019-04-03T23:00:48.691Z,3.50
2019-04-03T23:03:16.773Z,3.83
2019-04-03T23:05:47.713Z,5.10
2019-04-03T23:08:14.667Z,4.67
2019-04-03T23:10:45.587Z,5.03
2019-04-03T23:13:13.727Z,4.00
2019-04-03T23:15:41.820Z,5.30
2019-04-03T23:18:09.930Z,5.83
2019-04-03T23:20:38.067Z,5.20
2019-04-03T23:23:06.200Z,5.00
2019-04-03T23:25:34.470Z,5.10
2019-04-03T23:28:03.027Z,4.43
2019-04-03T23:30:31.816Z,5.60
2019-04-03T23:32:59.957Z,5.73
2019-04-03T23:35:28.165Z,5.83
2019-04-03T23:37:56.414Z,5.83
2019-04-03T23:40:24.675Z,5.47
2019-04-03T23:42:52.884Z,6.47
2019-04-03T23:45:21.746Z,6.07
2019-04-03T23:47:49.900Z,7.00
2019-04-03T23:50:18.104Z,7.10
2019-04-03T23:52:46.305Z,6.73
2019-04-03T23:55:14.613Z,8.20
2019-04-03T23:57:42.843Z,7.40
